createdAt,value
2019-01-24T00:00:19.509Z,27.40
2019-01-24T00:02:47.954Z,29.57
2019-01-24T00:05:16.438Z,28.30
2019-01-24T00:07:45.077Z,27.33
2019-01-24T00:10:13.639Z,28.77
2019-01-24T00:12:42.082Z,26.27
2019-01-24T00:15:10.774Z,28.67
2019-01-24T00:17:39.231Z,28.03
2019-01-24T00:20:13.101Z,27.77
2019-01-24T00:22:41.832Z,29.13
2019-01-24T00:25:14.789Z,27.97
2019-01-24T00:27:43.687Z,29.90
2019-01-24T00:30:16.378Z,29.37
2019-01-24T00:32:44.829Z,28.87
2019-01-24T00:35:13.691Z,28.93
2019-01-24T00:37:47.863Z,31.10
2019-01-24T00:40:20.830Z,29.93
2019-01-24T00:42:49.489Z,31.30
2019-01-24T00:45:18.107Z,31.00
2019-01-24T00:47:46.674Z,29.73
2019-01-24T00:50:16.487Z,29.50
2019-01-24T00:52:44.963Z,29.10
2019-01-24T00:55:14.951Z,29.00
2019-01-24T00:57:43.596Z,28.90
2019-01-24T01:00:25.649Z,31.33
2019-01-24T01:02:54.106Z,30.53
2019-01-24T01:05:22.552Z,30.60
2019-01-24T01:07:51.565Z,30.20
2019-01-24T01:10:20.158Z,30.27
2019-01-24T01:12:48.646Z,29.80
2019-01-24T01:15:18.921Z,27.97
2019-01-24T01:17:47.627Z,27.60
2019-01-24T01:20:18.927Z,28.53
2019-01-24T01:22:47.406Z,27.87
2019-01-24T01:25:16.138Z,28.63
2019-01-24T01:27:45.428Z,27.17
2019-01-24T01:30:17.001Z,26.90
2019-01-24T01:32:45.502Z,26.97
2019-01-24T01:35:14.054Z,25.93
2019-01-24T01:37:42.509Z,25.67
2019-01-24T01:40:13.704Z,24.73
2019-01-24T01:42:42.340Z,25.63
2019-01-24T01:45:13.767Z,23.90
2019-01-24T01:47:42.293Z,23.90
2019-01-24T01:50:13.907Z,27.07
2019-01-24T01:52:42.318Z,24.87
2019-01-24T01:55:10.962Z,25.60
2019-01-24T01:57:39.307Z,25.67
2019-01-24T02:00:10.876Z,25.03
2019-01-24T02:02:39.295Z,26.47
2019-01-24T02:05:09.877Z,24.30
2019-01-24T02:07:38.393Z,25.27
2019-01-24T02:10:09.901Z,25.13
2019-01-24T02:12:38.403Z,23.37
2019-01-24T02:15:09.329Z,24.40
2019-01-24T02:17:37.770Z,23.27
2019-01-24T02:20:17.689Z,23.53
2019-01-24T02:22:46.262Z,22.83
2019-01-24T02:25:15.044Z,24.80
2019-01-24T02:27:43.469Z,25.33
2019-01-24T02:30:20.536Z,25.07
2019-01-24T02:32:48.915Z,23.10
2019-01-24T02:35:17.379Z,24.77
2019-01-24T02:37:45.873Z,24.30
2019-01-24T02:40:14.785Z,25.50
2019-01-24T02:42:43.245Z,24.83
2019-01-24T02:45:17.402Z,24.47
2019-01-24T02:47:46.048Z,23.87
2019-01-24T02:50:19.799Z,24.50
2019-01-24T02:52:48.482Z,24.03
2019-01-24T02:55:17.311Z,23.73
2019-01-24T02:57:45.811Z,25.10
2019-01-24T03:00:22.703Z,26.27
2019-01-24T03:02:51.669Z,25.27
2019-01-24T03:05:21.874Z,27.90
2019-01-24T03:07:50.747Z,23.67
2019-01-24T03:10:19.466Z,25.73
2019-01-24T03:12:48.197Z,26.80
2019-01-24T03:15:18.480Z,24.27
2019-01-24T03:17:47.119Z,23.20
2019-01-24T03:20:17.019Z,25.70
2019-01-24T03:22:45.950Z,25.47
2019-01-24T03:25:16.152Z,26.40
2019-01-24T03:27:44.686Z,27.57
2019-01-24T03:30:15.565Z,27.00
2019-01-24T03:32:44.022Z,26.20
2019-01-24T03:35:15.289Z,25.30
2019-01-24T03:37:43.758Z,26.57
2019-01-24T03:40:13.762Z,26.03
2019-01-24T03:42:42.215Z,24.87
2019-01-24T03:45:13.246Z,26.37
2019-01-24T03:47:41.708Z,25.97
2019-01-24T03:50:13.024Z,27.80
2019-01-24T03:52:41.411Z,27.53
2019-01-24T03:55:11.012Z,27.60
2019-01-24T03:57:39.513Z,25.70
2019-01-24T04:00:13.658Z,27.20
2019-01-24T04:02:42.352Z,26.83
2019-01-24T04:05:12.006Z,25.90
2019-01-24T04:07:40.719Z,26.33
2019-01-24T04:10:12.265Z,25.57
2019-01-24T04:12:40.688Z,26.80
2019-01-24T04:15:12.415Z,26.90
2019-01-24T04:17:40.876Z,26.87
2019-01-24T04:20:10.395Z,26.00
2019-01-24T04:22:38.823Z,24.80
2019-01-24T04:25:08.455Z,26.63
2019-01-24T04:27:36.955Z,26.27
2019-01-24T04:30:08.532Z,26.70
2019-01-24T04:32:36.969Z,26.03
2019-01-24T04:35:07.898Z,26.57
2019-01-24T04:37:36.330Z,28.20
2019-01-24T04:40:07.318Z,27.93
2019-01-24T04:42:35.755Z,26.40
2019-01-24T04:45:05.984Z,25.13
2019-01-24T04:47:34.336Z,26.93
2019-01-24T04:50:03.173Z,25.83
2019-01-24T04:52:31.636Z,26.67
2019-01-24T04:55:00.376Z,27.57
2019-01-24T04:57:28.922Z,26.67
2019-01-24T04:59:57.286Z,27.80
2019-01-24T05:02:25.730Z,27.00
2019-01-24T05:04:54.187Z,27.30
2019-01-24T05:07:22.616Z,27.87
2019-01-24T05:09:51.009Z,26.00
2019-01-24T05:12:19.356Z,27.50
2019-01-24T05:14:47.748Z,25.83
2019-01-24T05:17:16.182Z,27.30
2019-01-24T05:19:44.576Z,26.60
2019-01-24T05:22:12.940Z,25.83
2019-01-24T05:24:41.430Z,25.00
2019-01-24T05:27:09.858Z,25.27
2019-01-24T05:29:38.357Z,27.83
2019-01-24T05:32:06.745Z,27.20
2019-01-24T05:34:35.103Z,25.77
2019-01-24T05:37:03.598Z,25.10
2019-01-24T05:39:32.026Z,25.77
2019-01-24T05:42:00.488Z,24.27
2019-01-24T05:44:28.848Z,23.10
2019-01-24T05:46:57.415Z,24.37
2019-01-24T05:49:25.848Z,24.80
2019-01-24T05:51:54.231Z,25.87
2019-01-24T05:54:22.584Z,26.47
2019-01-24T05:56:51.044Z,26.00
2019-01-24T05:59:19.410Z,24.63
2019-01-24T06:01:48.343Z,23.83
2019-01-24T06:04:16.848Z,23.43
2019-01-24T06:06:45.396Z,23.23
2019-01-24T06:09:13.764Z,23.10
2019-01-24T06:11:42.157Z,23.50
2019-01-24T06:14:10.516Z,23.67
2019-01-24T06:16:38.981Z,23.53
2019-01-24T06:19:07.410Z,23.97
2019-01-24T06:21:35.954Z,23.97
2019-01-24T06:24:04.491Z,24.40
2019-01-24T06:26:32.946Z,23.17
2019-01-24T06:29:03.018Z,22.93
2019-01-24T06:31:31.648Z,23.17
2019-01-24T06:34:00.011Z,23.27
2019-01-24T06:36:28.398Z,20.57
2019-01-24T06:38:56.755Z,22.27
2019-01-24T06:41:25.197Z,21.23
2019-01-24T06:43:53.595Z,21.47
2019-01-24T06:46:22.090Z,22.53
2019-01-24T06:48:50.492Z,21.33
2019-01-24T06:51:18.852Z,21.80
2019-01-24T06:53:47.231Z,22.83
2019-01-24T06:56:15.678Z,23.30
2019-01-24T06:58:44.072Z,23.87
2019-01-24T07:01:12.433Z,21.80
2019-01-24T07:03:40.892Z,24.87
2019-01-24T07:06:09.322Z,24.77
2019-01-24T07:08:37.806Z,23.33
2019-01-24T07:11:06.232Z,24.40
2019-01-24T07:13:34.714Z,25.03
2019-01-24T07:16:03.150Z,23.70
2019-01-24T07:18:31.618Z,24.63
2019-01-24T07:20:59.978Z,24.27
2019-01-24T07:23:28.441Z,23.97
2019-01-24T07:25:56.869Z,24.77
2019-01-24T07:28:25.411Z,24.80
2019-01-24T07:30:53.853Z,24.13
2019-01-24T07:33:22.399Z,26.07
2019-01-24T07:35:50.829Z,25.70
2019-01-24T07:38:19.302Z,26.17
2019-01-24T07:40:47.718Z,24.00
2019-01-24T07:43:16.106Z,23.67
2019-01-24T07:45:44.544Z,23.67
2019-01-24T07:48:13.078Z,23.33
2019-01-24T07:50:41.517Z,23.63
2019-01-24T07:53:10.062Z,22.47
2019-01-24T07:55:38.420Z,25.53
2019-01-24T07:58:07.169Z,24.87
2019-01-24T08:00:35.668Z,23.97
2019-01-24T08:03:04.268Z,22.93
2019-01-24T08:05:32.729Z,21.93
2019-01-24T08:08:01.236Z,21.23
2019-01-24T08:10:29.777Z,21.20
2019-01-24T08:12:58.197Z,22.73
2019-01-24T08:15:26.674Z,22.33
2019-01-24T08:17:55.098Z,20.67
2019-01-24T08:20:25.431Z,20.83
2019-01-24T08:22:53.928Z,22.40
2019-01-24T08:25:22.520Z,20.60
2019-01-24T08:27:51.018Z,21.13
2019-01-24T08:30:25.284Z,20.47
2019-01-24T08:32:53.852Z,22.50
2019-01-24T08:35:22.314Z,22.37
2019-01-24T08:37:50.813Z,21.47
2019-01-24T08:40:24.148Z,21.93
2019-01-24T08:42:52.977Z,21.80
2019-01-24T08:45:21.571Z,22.83
2019-01-24T08:47:49.990Z,22.30
2019-01-24T08:50:20.424Z,20.80
2019-01-24T08:52:49.119Z,23.43
2019-01-24T08:55:23.082Z,22.40
2019-01-24T08:57:51.581Z,22.63
2019-01-24T09:00:21.799Z,21.27
2019-01-24T09:02:51.188Z,20.13
2019-01-24T09:05:19.932Z,22.07
2019-01-24T09:07:50.301Z,21.83
2019-01-24T09:10:27.376Z,21.33
2019-01-24T09:12:55.978Z,21.47
2019-01-24T09:15:24.980Z,21.67
2019-01-24T09:17:53.723Z,19.70
2019-01-24T09:20:22.336Z,21.20
2019-01-24T09:22:55.143Z,21.17
2019-01-24T09:25:20.957Z,20.90
2019-01-24T09:27:49.446Z,20.03
2019-01-24T09:30:26.095Z,20.63
2019-01-24T09:32:54.547Z,20.57
2019-01-24T09:35:23.183Z,20.37
2019-01-24T09:37:51.676Z,22.73
2019-01-24T09:40:21.603Z,21.33
2019-01-24T09:42:50.203Z,22.83
2019-01-24T09:45:27.325Z,21.50
2019-01-24T09:47:57.422Z,20.27
2019-01-24T09:50:28.434Z,23.37
2019-01-24T09:52:57.485Z,22.90
2019-01-24T09:55:28.436Z,22.53
2019-01-24T09:57:57.347Z,21.90
2019-01-24T10:00:36.142Z,21.23
2019-01-24T10:03:05.385Z,20.97
2019-01-24T10:05:34.179Z,21.00
2019-01-24T10:08:04.512Z,18.53
2019-01-24T10:10:33.620Z,20.67
2019-01-24T10:13:02.812Z,20.80
2019-01-24T10:15:32.248Z,19.73
2019-01-24T10:18:01.211Z,20.60
2019-01-24T10:20:30.036Z,20.07
2019-01-24T10:22:59.575Z,19.20
2019-01-24T10:25:34.499Z,21.10
2019-01-24T10:28:03.593Z,19.30
2019-01-24T10:30:32.621Z,21.80
2019-01-24T10:33:01.660Z,20.80
2019-01-24T10:35:30.608Z,23.03
2019-01-24T10:37:59.639Z,21.70
2019-01-24T10:40:33.588Z,22.83
2019-01-24T10:43:02.609Z,23.33
2019-01-24T10:45:32.927Z,23.93
2019-01-24T10:48:03.201Z,24.40
2019-01-24T10:50:31.831Z,21.80
2019-01-24T10:53:01.040Z,22.73
2019-01-24T10:55:30.023Z,23.40
2019-01-24T10:58:00.433Z,22.80
2019-01-24T11:00:32.855Z,24.00
2019-01-24T11:03:02.840Z,22.23
2019-01-24T11:05:31.542Z,24.03
2019-01-24T11:08:00.161Z,23.83
2019-01-24T11:10:32.154Z,23.10
2019-01-24T11:13:03.301Z,23.40
2019-01-24T11:15:31.807Z,25.33
2019-01-24T11:18:00.406Z,23.83
2019-01-24T11:20:30.063Z,24.23
2019-01-24T11:22:58.855Z,23.13
2019-01-24T11:25:27.966Z,24.00
2019-01-24T11:27:56.600Z,23.33
2019-01-24T11:30:31.809Z,23.67
2019-01-24T11:33:03.389Z,24.00
2019-01-24T11:35:34.545Z,24.03
2019-01-24T11:38:03.234Z,24.23
2019-01-24T11:40:31.657Z,24.27
2019-01-24T11:43:05.257Z,24.97
2019-01-24T11:45:40.024Z,23.90
2019-01-24T11:48:09.107Z,24.13
2019-01-24T11:50:39.450Z,23.57
2019-01-24T11:53:08.496Z,23.07
2019-01-24T11:55:37.252Z,23.23
2019-01-24T11:58:06.247Z,23.47
2019-01-24T12:00:38.599Z,24.27
2019-01-24T12:03:08.800Z,24.53
2019-01-24T12:05:38.323Z,23.00
2019-01-24T12:08:07.880Z,23.63
2019-01-24T12:10:37.272Z,24.97
2019-01-24T12:13:06.097Z,25.40
2019-01-24T12:15:34.762Z,24.40
2019-01-24T12:18:05.255Z,24.03
2019-01-24T12:20:34.244Z,27.03
2019-01-24T12:23:06.582Z,24.63
2019-01-24T12:25:35.533Z,24.20
2019-01-24T12:28:06.228Z,24.27
2019-01-24T12:30:36.639Z,24.30
2019-01-24T12:33:06.079Z,25.47
2019-01-24T12:35:36.530Z,24.17
2019-01-24T12:38:12.022Z,25.43
2019-01-24T12:40:40.722Z,25.47
2019-01-24T12:43:09.652Z,24.97
2019-01-24T12:45:41.645Z,25.40
2019-01-24T12:48:12.311Z,26.00
2019-01-24T12:50:41.319Z,25.87
2019-01-24T12:53:11.553Z,25.97
2019-01-24T12:55:41.344Z,25.80
2019-01-24T12:58:11.726Z,25.97
2019-01-24T13:00:42.469Z,25.03
2019-01-24T13:03:13.984Z,27.47
2019-01-24T13:05:43.515Z,26.60
2019-01-24T13:08:13.360Z,27.07
2019-01-24T13:10:42.167Z,28.80
2019-01-24T13:13:10.519Z,27.40
2019-01-24T13:15:39.054Z,30.20
2019-01-24T13:18:07.931Z,29.47
2019-01-24T13:20:36.385Z,29.90
2019-01-24T13:23:05.012Z,32.50
2019-01-24T13:25:34.493Z,31.33
2019-01-24T13:28:03.072Z,33.77
2019-01-24T13:30:38.067Z,35.97
2019-01-24T13:33:07.651Z,37.17
2019-01-24T13:35:36.636Z,41.67
2019-01-24T13:38:06.131Z,42.97
2019-01-24T13:40:34.637Z,41.87
2019-01-24T13:43:06.318Z,41.50
2019-01-24T13:45:39.183Z,41.17
2019-01-24T13:48:07.956Z,42.53
2019-01-24T13:50:37.048Z,43.53
2019-01-24T13:53:06.352Z,41.73
2019-01-24T13:55:35.384Z,41.47
2019-01-24T13:58:05.639Z,38.63
2019-01-24T14:00:36.236Z,39.70
2019-01-24T14:03:11.746Z,38.40
2019-01-24T14:05:40.146Z,41.87
2019-01-24T14:08:09.148Z,41.23
2019-01-24T14:10:38.614Z,38.93
2019-01-24T14:13:09.606Z,38.40
2019-01-24T14:15:38.090Z,42.27
2019-01-24T14:18:07.383Z,40.03
2019-01-24T14:20:37.338Z,38.67
2019-01-24T14:23:07.410Z,36.47
2019-01-24T14:25:35.829Z,40.07
2019-01-24T14:28:05.508Z,38.40
2019-01-24T14:30:34.537Z,38.00
2019-01-24T14:33:05.156Z,37.87
2019-01-24T14:35:34.358Z,37.77
2019-01-24T14:38:03.059Z,38.30
2019-01-24T14:40:32.011Z,39.43
2019-01-24T14:43:02.183Z,36.13
2019-01-24T14:45:30.714Z,36.87
2019-01-24T14:47:59.774Z,36.23
2019-01-24T14:50:30.348Z,34.27
2019-01-24T14:52:59.167Z,35.57
2019-01-24T14:55:27.599Z,37.53
2019-01-24T14:57:56.132Z,35.23
2019-01-24T15:00:37.453Z,36.30
2019-01-24T15:03:06.121Z,37.33
2019-01-24T15:05:39.260Z,36.70
2019-01-24T15:08:07.940Z,38.63
2019-01-24T15:10:36.541Z,41.37
2019-01-24T15:13:05.873Z,41.13
2019-01-24T15:15:34.305Z,42.80
2019-01-24T15:18:03.332Z,43.87
2019-01-24T15:20:32.248Z,42.13
2019-01-24T15:23:00.737Z,44.00
2019-01-24T15:25:32.825Z,44.90
2019-01-24T15:28:01.354Z,43.33
2019-01-24T15:30:30.973Z,44.33
2019-01-24T15:33:00.590Z,44.10
2019-01-24T15:35:31.297Z,48.43
2019-01-24T15:38:00.201Z,46.63
2019-01-24T15:40:34.481Z,42.40
2019-01-24T15:43:03.081Z,45.83
2019-01-24T15:45:31.751Z,47.77
2019-01-24T15:48:00.499Z,43.73
2019-01-24T15:50:28.991Z,43.73
2019-01-24T15:52:57.519Z,40.43
2019-01-24T15:55:25.878Z,42.90
2019-01-24T15:57:55.556Z,46.07
2019-01-24T16:00:32.942Z,45.30
2019-01-24T16:03:02.014Z,43.90
2019-01-24T16:05:30.577Z,44.43
2019-01-24T16:08:01.934Z,42.97
2019-01-24T16:10:30.663Z,41.70
2019-01-24T16:12:59.291Z,43.40
2019-01-24T16:15:30.931Z,41.77
2019-01-24T16:17:59.449Z,43.00
2019-01-24T16:20:29.917Z,41.37
2019-01-24T16:22:59.531Z,44.20
2019-01-24T16:25:31.285Z,42.03
2019-01-24T16:27:59.930Z,42.80
2019-01-24T16:30:33.504Z,42.13
2019-01-24T16:33:07.263Z,42.80
2019-01-24T16:35:36.279Z,40.73
2019-01-24T16:38:09.608Z,44.40
2019-01-24T16:40:35.585Z,40.20
2019-01-24T16:43:04.613Z,43.20
2019-01-24T16:45:33.288Z,40.00
2019-01-24T16:48:02.055Z,43.80
2019-01-24T16:50:30.455Z,42.40
2019-01-24T16:53:01.113Z,39.73
2019-01-24T16:55:29.952Z,40.10
2019-01-24T16:57:58.709Z,39.30
2019-01-24T17:00:31.215Z,42.07
2019-01-24T17:02:59.795Z,40.73
2019-01-24T17:05:29.196Z,42.20
2019-01-24T17:07:58.233Z,42.13
2019-01-24T17:10:32.212Z,42.13
2019-01-24T17:13:01.242Z,40.60
2019-01-24T17:15:30.731Z,40.53
2019-01-24T17:17:59.307Z,41.07
2019-01-24T17:20:34.024Z,39.30
2019-01-24T17:23:05.214Z,40.77
2019-01-24T17:25:33.983Z,40.07
2019-01-24T17:28:04.927Z,40.57
2019-01-24T17:30:36.269Z,41.40
2019-01-24T17:33:08.234Z,41.40
2019-01-24T17:35:42.205Z,39.23
2019-01-24T17:38:10.951Z,41.17
2019-01-24T17:40:40.190Z,38.47
2019-01-24T17:43:11.871Z,40.20
2019-01-24T17:45:41.872Z,42.70
2019-01-24T17:48:10.510Z,37.07
2019-01-24T17:50:41.760Z,40.30
2019-01-24T17:53:10.685Z,38.67
2019-01-24T17:55:45.015Z,39.10
2019-01-24T17:58:14.126Z,38.80
2019-01-24T18:00:48.802Z,37.83
2019-01-24T18:03:17.609Z,36.17
2019-01-24T18:05:48.547Z,37.37
2019-01-24T18:08:17.292Z,37.20
2019-01-24T18:10:46.591Z,38.37
2019-01-24T18:13:15.134Z,38.17
2019-01-24T18:15:45.336Z,35.73
2019-01-24T18:18:15.193Z,38.10
2019-01-24T18:20:43.771Z,37.23
2019-01-24T18:23:13.233Z,37.13
2019-01-24T18:25:43.502Z,39.50
2019-01-24T18:28:12.494Z,38.47
2019-01-24T18:30:42.604Z,37.53
2019-01-24T18:33:11.490Z,37.87
2019-01-24T18:35:40.408Z,37.50
2019-01-24T18:38:09.487Z,38.40
2019-01-24T18:40:39.793Z,35.33
2019-01-24T18:43:11.951Z,37.97
2019-01-24T18:45:54.163Z,38.10
2019-01-24T18:48:26.484Z,39.47
2019-01-24T18:50:57.108Z,38.83
2019-01-24T18:53:25.948Z,39.80
2019-01-24T18:55:54.883Z,41.63
2019-01-24T18:58:23.986Z,40.17
2019-01-24T19:00:52.531Z,39.43
2019-01-24T19:03:21.033Z,38.80
2019-01-24T19:05:49.543Z,38.67
2019-01-24T19:08:18.256Z,40.20
2019-01-24T19:10:46.758Z,39.70
2019-01-24T19:13:15.223Z,38.47
2019-01-24T19:15:43.653Z,37.33
2019-01-24T19:18:12.658Z,37.80
2019-01-24T19:20:41.414Z,36.70
2019-01-24T19:23:10.141Z,37.87
2019-01-24T19:25:38.839Z,38.73
2019-01-24T19:28:07.559Z,38.93
2019-01-24T19:30:36.044Z,37.53
2019-01-24T19:33:04.980Z,40.40
2019-01-24T19:35:33.474Z,38.13
2019-01-24T19:38:02.344Z,35.23
2019-01-24T19:40:32.888Z,38.60
2019-01-24T19:43:01.586Z,35.50
2019-01-24T19:45:30.622Z,38.87
2019-01-24T19:47:59.214Z,37.90
2019-01-24T19:50:30.123Z,37.43
2019-01-24T19:52:59.055Z,37.17
2019-01-24T19:55:27.725Z,41.70
2019-01-24T19:57:56.914Z,38.00
2019-01-24T20:00:32.856Z,38.97
2019-01-24T20:03:01.662Z,35.93
2019-01-24T20:05:30.336Z,38.57
2019-01-24T20:07:59.034Z,41.83
2019-01-24T20:10:32.009Z,39.30
2019-01-24T20:13:01.050Z,38.67
2019-01-24T20:15:33.826Z,38.10
2019-01-24T20:18:02.638Z,40.30
2019-01-24T20:20:32.704Z,42.30
2019-01-24T20:23:01.351Z,42.10
2019-01-24T20:25:31.649Z,39.90
2019-01-24T20:28:01.753Z,41.93
2019-01-24T20:30:33.962Z,41.03
2019-01-24T20:33:03.358Z,44.57
2019-01-24T20:35:37.274Z,42.33
2019-01-24T20:38:07.049Z,40.27
2019-01-24T20:40:35.842Z,42.30
2019-01-24T20:43:07.864Z,41.67
2019-01-24T20:45:36.748Z,43.80
2019-01-24T20:48:05.910Z,44.70
2019-01-24T20:50:34.520Z,45.27
2019-01-24T20:53:03.157Z,43.60
2019-01-24T20:55:33.113Z,47.27
2019-01-24T20:58:01.968Z,44.23
2019-01-24T21:00:32.301Z,45.03
2019-01-24T21:03:04.261Z,43.67
2019-01-24T21:05:35.984Z,45.07
2019-01-24T21:08:04.591Z,43.10
2019-01-24T21:10:34.216Z,47.10
2019-01-24T21:13:03.451Z,45.53
2019-01-24T21:15:32.425Z,46.63
2019-01-24T21:18:00.865Z,45.37
2019-01-24T21:20:32.919Z,45.20
2019-01-24T21:23:01.381Z,46.40
2019-01-24T21:25:29.895Z,47.50
2019-01-24T21:27:58.397Z,46.80
2019-01-24T21:30:35.607Z,46.23
2019-01-24T21:33:05.120Z,45.93
2019-01-24T21:35:33.896Z,46.00
2019-01-24T21:38:02.886Z,47.37
2019-01-24T21:40:31.902Z,49.23
2019-01-24T21:43:00.502Z,46.20
2019-01-24T21:45:31.883Z,48.60
2019-01-24T21:48:00.732Z,48.57
2019-01-24T21:50:31.188Z,47.10
2019-01-24T21:52:59.961Z,46.03
2019-01-24T21:55:28.953Z,46.73
2019-01-24T21:57:57.926Z,47.93
2019-01-24T22:00:27.977Z,48.13
2019-01-24T22:02:56.588Z,49.07
2019-01-24T22:05:25.391Z,47.50
2019-01-24T22:07:53.867Z,47.70
2019-01-24T22:10:24.539Z,47.30
2019-01-24T22:12:54.388Z,48.60
2019-01-24T22:15:25.613Z,48.47
2019-01-24T22:17:54.751Z,49.80
2019-01-24T22:20:23.810Z,46.53
2019-01-24T22:22:52.647Z,46.67
2019-01-24T22:25:24.284Z,46.47
2019-01-24T22:27:52.998Z,48.87
2019-01-24T22:30:29.331Z,50.83
2019-01-24T22:32:58.254Z,50.23
2019-01-24T22:35:26.690Z,48.33
2019-01-24T22:37:55.594Z,51.20
2019-01-24T22:40:24.754Z,45.87
2019-01-24T22:42:53.696Z,48.13
2019-01-24T22:45:28.063Z,47.73
2019-01-24T22:47:58.006Z,50.60
2019-01-24T22:50:26.611Z,47.83
2019-01-24T22:52:55.275Z,49.47
2019-01-24T22:55:24.676Z,50.07
2019-01-24T22:57:53.365Z,49.20
2019-01-24T23:00:26.547Z,50.53
2019-01-24T23:02:55.308Z,46.73
2019-01-24T23:05:23.799Z,49.53
2019-01-24T23:07:52.713Z,50.97
2019-01-24T23:10:23.365Z,51.20
2019-01-24T23:12:55.868Z,50.53
2019-01-24T23:15:25.841Z,49.63
2019-01-24T23:17:54.539Z,48.93
2019-01-24T23:20:23.371Z,50.17
2019-01-24T23:22:54.508Z,48.63
2019-01-24T23:25:23.278Z,47.63
2019-01-24T23:27:51.664Z,51.83
2019-01-24T23:30:20.592Z,50.80
2019-01-24T23:32:50.942Z,53.10
2019-01-24T23:35:20.157Z,52.73
2019-01-24T23:37:52.484Z,49.90
2019-01-24T23:40:19.399Z,50.07
2019-01-24T23:42:48.166Z,49.53
2019-01-24T23:45:17.230Z,49.80
2019-01-24T23:47:47.373Z,49.20
2019-01-24T23:50:16.132Z,49.93
2019-01-24T23:52:44.848Z,47.60
2019-01-24T23:55:13.626Z,49.70
2019-01-24T23:57:42.168Z,49.50
